Terminal Aerodrome Forecast
Issued by NWS Wilmington, NC

Home | Current Version | Previous Version | Text Only | Print | Product List | Glossary On
Versions: 1 2 3 4 5 6 7 8 9 10 11 12 13
224
FTUS42 KILM 081300 AAA
TAFLBT
TAF AMD
KLBT 081300Z 0813/0912 22002KT 6SM BR SCT023
      TEMPO 0813/0815 5SM BR OVC012
     FM081500 26007KT P6SM BKN025
     FM081800 33008KT P6SM SCT025 OVC050
     FM090200 33004KT P6SM BKN250=

USA.gov is the U.S. government's official web portal to all federal, state and local government web resources and services.